createdAt,value
2019-03-15T00:02:02.181Z,1.77
2019-03-15T00:04:28.536Z,0.80
2019-03-15T00:06:55.208Z,1.20
2019-03-15T00:09:22.468Z,1.13
2019-03-15T00:11:49.103Z,1.07
2019-03-15T00:14:15.423Z,1.10
2019-03-15T00:16:42.069Z,0.90
2019-03-15T00:19:08.711Z,0.80
2019-03-15T00:21:35.039Z,1.37
2019-03-15T00:24:01.693Z,0.77
2019-03-15T00:26:28.018Z,1.63
2019-03-15T00:28:54.473Z,1.13
2019-03-15T00:31:21.232Z,0.97
2019-03-15T00:33:47.930Z,0.73
2019-03-15T00:36:14.282Z,0.87
2019-03-15T00:38:40.887Z,0.70
2019-03-15T00:41:07.230Z,0.77
2019-03-15T00:43:33.583Z,1.10
2019-03-15T00:45:59.915Z,0.70
2019-03-15T00:48:26.537Z,1.13
2019-03-15T00:50:52.850Z,0.90
2019-03-15T00:53:19.185Z,0.87
2019-03-15T00:55:45.831Z,1.23
2019-03-15T00:58:12.183Z,1.10
2019-03-15T01:00:38.502Z,1.10
2019-03-15T01:03:05.923Z,1.73
2019-03-15T01:05:32.313Z,1.30
2019-03-15T01:07:58.636Z,1.10
2019-03-15T01:10:24.970Z,1.40
2019-03-15T01:12:51.579Z,1.13
2019-03-15T01:15:17.957Z,1.20
2019-03-15T01:17:44.549Z,1.73
2019-03-15T01:20:11.196Z,1.07
2019-03-15T01:22:37.858Z,1.07
2019-03-15T01:25:07.952Z,0.87
2019-03-15T01:27:40.388Z,1.13
2019-03-15T01:30:09.717Z,1.10
2019-03-15T01:32:36.067Z,1.10
2019-03-15T01:35:05.357Z,1.13
2019-03-15T01:37:31.994Z,0.90
2019-03-15T01:39:59.474Z,1.00
2019-03-15T01:42:25.814Z,0.80
2019-03-15T01:44:52.138Z,0.90
2019-03-15T01:47:18.753Z,1.17
2019-03-15T01:49:45.412Z,1.13
2019-03-15T01:52:13.457Z,1.00
2019-03-15T01:54:39.798Z,1.13
2019-03-15T01:57:06.422Z,1.20
2019-03-15T01:59:32.796Z,1.17
2019-03-15T02:01:59.116Z,1.23
2019-03-15T02:04:26.251Z,1.17
2019-03-15T02:06:52.566Z,1.03
2019-03-15T02:09:18.897Z,0.93
2019-03-15T02:11:46.868Z,1.33
2019-03-15T02:14:13.526Z,1.50
2019-03-15T02:16:40.144Z,1.83
2019-03-15T02:19:06.499Z,1.20
2019-03-15T02:21:33.148Z,1.10
2019-03-15T02:23:59.776Z,0.90
2019-03-15T02:26:26.431Z,0.97
2019-03-15T02:28:52.719Z,2.20
2019-03-15T02:31:19.137Z,1.60
2019-03-15T02:33:45.557Z,1.23
2019-03-15T02:36:11.990Z,1.03
2019-03-15T02:38:38.335Z,1.23
2019-03-15T02:41:05.224Z,1.17
2019-03-15T02:43:33.177Z,1.00
2019-03-15T02:45:59.813Z,0.90
2019-03-15T02:48:26.165Z,1.60
2019-03-15T02:50:52.790Z,0.90
2019-03-15T02:53:19.127Z,0.93
2019-03-15T02:55:45.507Z,0.93
2019-03-15T02:58:12.418Z,1.90
2019-03-15T03:00:38.771Z,1.20
2019-03-15T03:03:05.097Z,1.70
2019-03-15T03:05:31.852Z,1.00
2019-03-15T03:07:58.126Z,2.03
2019-03-15T03:10:24.517Z,1.00
2019-03-15T03:12:50.841Z,1.13
2019-03-15T03:15:17.571Z,1.33
2019-03-15T03:17:43.890Z,0.80
2019-03-15T03:20:10.730Z,1.20
2019-03-15T03:22:37.052Z,1.00
2019-03-15T03:25:04.950Z,0.90
2019-03-15T03:27:31.300Z,1.53
2019-03-15T03:29:57.645Z,0.90
2019-03-15T03:32:23.964Z,0.90
2019-03-15T03:34:50.272Z,1.00
2019-03-15T03:37:16.623Z,1.73
2019-03-15T03:39:42.952Z,1.03
2019-03-15T03:42:09.298Z,1.37
2019-03-15T03:44:36.516Z,1.17
2019-03-15T03:47:03.235Z,0.80
2019-03-15T03:49:29.533Z,1.03
2019-03-15T03:51:56.230Z,1.40
2019-03-15T03:54:22.924Z,1.40
2019-03-15T03:56:49.318Z,1.10
2019-03-15T03:59:15.650Z,1.20
2019-03-15T04:01:42.348Z,1.50
2019-03-15T04:04:08.687Z,1.30
2019-03-15T04:06:35.066Z,0.90
2019-03-15T04:09:01.517Z,2.40
2019-03-15T04:11:27.901Z,1.43
2019-03-15T04:13:54.226Z,1.70
2019-03-15T04:16:20.824Z,1.03
2019-03-15T04:18:47.537Z,1.07
2019-03-15T04:21:14.222Z,1.17
2019-03-15T04:23:40.526Z,1.00
2019-03-15T04:26:07.190Z,1.00
2019-03-15T04:28:33.518Z,1.20
2019-03-15T04:30:59.886Z,1.23
2019-03-15T04:33:26.191Z,1.33
2019-03-15T04:35:52.819Z,1.00
2019-03-15T04:38:19.461Z,1.53
2019-03-15T04:40:46.097Z,1.33
2019-03-15T04:43:12.736Z,1.00
2019-03-15T04:45:39.051Z,1.37
2019-03-15T04:48:05.708Z,1.00
2019-03-15T04:50:32.043Z,1.57
2019-03-15T04:52:58.667Z,1.37
2019-03-15T04:55:25.422Z,1.30
2019-03-15T04:57:52.048Z,1.63
2019-03-15T05:00:18.406Z,1.33
2019-03-15T05:02:45.008Z,1.00
2019-03-15T05:05:11.363Z,0.90
2019-03-15T05:07:37.709Z,1.30
2019-03-15T05:10:07.431Z,1.07
2019-03-15T05:12:33.757Z,1.07
2019-03-15T05:15:02.334Z,1.07
2019-03-15T05:17:28.779Z,2.00
2019-03-15T05:19:55.101Z,1.10
2019-03-15T05:22:21.903Z,1.07
2019-03-15T05:24:48.647Z,1.53
2019-03-15T05:27:15.303Z,2.70
2019-03-15T05:29:41.927Z,1.00
2019-03-15T05:32:08.270Z,0.83
2019-03-15T05:34:34.892Z,2.03
2019-03-15T05:37:01.245Z,1.70
2019-03-15T05:39:27.570Z,1.50
2019-03-15T05:41:54.514Z,1.33
2019-03-15T05:44:20.852Z,1.30
2019-03-15T05:46:47.581Z,1.57
2019-03-15T05:49:13.920Z,0.90
2019-03-15T05:51:40.553Z,2.10
2019-03-15T05:54:06.905Z,1.33
2019-03-15T05:56:33.242Z,1.43
2019-03-15T05:58:59.863Z,1.10
2019-03-15T06:01:26.179Z,1.30
2019-03-15T06:03:52.819Z,0.90
2019-03-15T06:06:19.152Z,1.17
2019-03-15T06:08:45.808Z,1.60
2019-03-15T06:11:12.186Z,1.70
2019-03-15T06:13:38.754Z,1.37
2019-03-15T06:16:05.411Z,1.07
2019-03-15T06:18:31.756Z,1.30
2019-03-15T06:20:58.058Z,1.27
2019-03-15T06:23:24.395Z,1.77
2019-03-15T06:25:50.686Z,1.20
2019-03-15T06:28:17.374Z,1.27
2019-03-15T06:30:44.792Z,1.10
2019-03-15T06:33:11.149Z,1.40
2019-03-15T06:35:37.792Z,1.20
2019-03-15T06:38:04.164Z,2.27
2019-03-15T06:40:30.767Z,0.93
2019-03-15T06:42:57.398Z,1.50
2019-03-15T06:45:23.722Z,1.90
2019-03-15T06:47:50.025Z,1.90
2019-03-15T06:50:16.377Z,1.77
2019-03-15T06:52:42.706Z,1.57
2019-03-15T06:55:09.372Z,1.70
2019-03-15T06:57:36.099Z,1.30
2019-03-15T07:00:07.091Z,1.50
2019-03-15T07:02:33.415Z,1.90
2019-03-15T07:05:00.006Z,3.33
2019-03-15T07:07:26.661Z,1.40
2019-03-15T07:09:53.332Z,1.53
2019-03-15T07:12:19.948Z,1.40
2019-03-15T07:14:46.591Z,1.87
2019-03-15T07:17:12.929Z,1.70
2019-03-15T07:19:39.282Z,1.57
2019-03-15T07:22:05.991Z,2.20
2019-03-15T07:24:32.605Z,1.93
2019-03-15T07:27:12.232Z,1.47
2019-03-15T07:29:28.148Z,1.83
2019-03-15T07:31:54.591Z,2.10
2019-03-15T07:34:20.924Z,2.17
2019-03-15T07:36:47.568Z,2.17
2019-03-15T07:39:13.887Z,1.90
2019-03-15T07:41:40.199Z,1.83
2019-03-15T07:44:06.553Z,1.83
2019-03-15T07:46:34.076Z,1.80
2019-03-15T07:49:02.277Z,2.13
2019-03-15T07:51:28.596Z,2.43
2019-03-15T07:53:56.001Z,1.70
2019-03-15T07:56:22.446Z,2.00
2019-03-15T07:58:48.931Z,2.30
2019-03-15T08:01:15.595Z,2.10
2019-03-15T08:03:42.203Z,2.33
2019-03-15T08:06:09.154Z,2.37
2019-03-15T08:08:35.493Z,1.33
2019-03-15T08:11:02.737Z,1.47
2019-03-15T08:13:29.350Z,1.70
2019-03-15T08:15:55.671Z,2.63
2019-03-15T08:18:22.373Z,2.10
2019-03-15T08:20:48.974Z,1.97
2019-03-15T08:23:15.634Z,2.43
2019-03-15T08:25:42.453Z,2.50
2019-03-15T08:28:08.827Z,2.37
2019-03-15T08:30:35.155Z,3.03
2019-03-15T08:33:10.020Z,1.97
2019-03-15T08:35:30.267Z,1.97
2019-03-15T08:37:56.990Z,2.40
2019-03-15T08:40:25.800Z,2.57
2019-03-15T08:42:51.923Z,2.37
2019-03-15T08:45:20.490Z,1.87
2019-03-15T08:47:47.293Z,2.00
2019-03-15T08:50:15.792Z,2.47
2019-03-15T08:52:42.415Z,2.30
2019-03-15T08:55:11.376Z,2.20
2019-03-15T08:57:38.114Z,2.30
2019-03-15T09:00:13.530Z,1.57
2019-03-15T09:02:39.939Z,2.57
2019-03-15T09:05:10.042Z,2.27
2019-03-15T09:07:37.847Z,2.43
2019-03-15T09:10:21.855Z,1.80
2019-03-15T09:12:37.026Z,2.17
2019-03-15T09:15:05.779Z,2.80
2019-03-15T09:17:32.112Z,2.07
2019-03-15T09:19:58.543Z,2.40
2019-03-15T09:22:25.283Z,2.80
2019-03-15T09:24:51.903Z,2.20
2019-03-15T09:27:18.234Z,1.90
2019-03-15T09:29:44.577Z,2.50
2019-03-15T09:32:11.292Z,2.00
2019-03-15T09:34:38.780Z,2.30
2019-03-15T09:37:07.603Z,2.67
2019-03-15T09:39:34.411Z,1.90
2019-03-15T09:42:00.725Z,2.00
2019-03-15T09:44:27.496Z,2.50
2019-03-15T09:46:55.530Z,2.23
2019-03-15T09:49:23.081Z,2.43
2019-03-15T09:51:49.755Z,2.40
2019-03-15T09:54:16.151Z,2.70
2019-03-15T09:56:42.579Z,3.07
2019-03-15T09:59:09.230Z,2.50
2019-03-15T10:01:35.773Z,2.60
2019-03-15T10:04:02.223Z,2.40
2019-03-15T10:06:28.620Z,2.83
2019-03-15T10:08:54.986Z,2.60
2019-03-15T10:11:21.349Z,1.90
2019-03-15T10:13:48.138Z,2.07
2019-03-15T10:16:14.777Z,1.70
2019-03-15T10:18:41.334Z,1.40
2019-03-15T10:21:09.216Z,2.60
2019-03-15T10:23:35.898Z,2.00
2019-03-15T10:26:02.347Z,1.87
2019-03-15T10:28:28.764Z,3.20
2019-03-15T10:30:55.446Z,2.27
2019-03-15T10:33:22.186Z,2.87
2019-03-15T10:35:48.545Z,1.83
2019-03-15T10:38:16.681Z,2.50
2019-03-15T10:40:43.590Z,1.30
2019-03-15T10:43:09.898Z,1.80
2019-03-15T10:45:36.230Z,2.00
2019-03-15T10:48:02.583Z,2.80
2019-03-15T10:50:28.959Z,1.43
2019-03-15T10:52:55.323Z,2.43
2019-03-15T10:55:21.653Z,2.00
2019-03-15T10:57:48.029Z,1.80
2019-03-15T11:00:19.128Z,1.87
2019-03-15T11:02:45.646Z,1.60
2019-03-15T11:05:12.199Z,1.33
2019-03-15T11:07:38.922Z,1.93
2019-03-15T11:10:09.670Z,1.67
2019-03-15T11:12:36.016Z,3.00
2019-03-15T11:15:02.854Z,1.90
2019-03-15T11:17:30.208Z,1.77
2019-03-15T11:19:56.591Z,1.93
2019-03-15T11:22:23.340Z,2.67
2019-03-15T11:24:49.721Z,1.53
2019-03-15T11:27:16.052Z,1.47
2019-03-15T11:29:42.385Z,1.77
2019-03-15T11:32:08.818Z,1.37
2019-03-15T11:34:36.840Z,1.50
2019-03-15T11:37:03.667Z,2.20
2019-03-15T11:39:30.277Z,2.90
2019-03-15T11:41:56.699Z,2.57
2019-03-15T11:44:24.224Z,1.50
2019-03-15T11:46:50.947Z,1.67
2019-03-15T11:49:17.455Z,2.57
2019-03-15T11:51:44.218Z,1.77
2019-03-15T11:54:10.870Z,1.63
2019-03-15T11:56:37.252Z,1.60
2019-03-15T11:59:03.562Z,1.50
2019-03-15T12:01:29.941Z,2.30
2019-03-15T12:03:58.159Z,1.47
2019-03-15T12:06:24.504Z,1.77
2019-03-15T12:08:50.882Z,1.63
2019-03-15T12:11:17.223Z,1.57
2019-03-15T12:13:43.882Z,1.27
2019-03-15T12:16:10.509Z,1.50
2019-03-15T12:18:36.842Z,1.33
2019-03-15T12:21:04.496Z,0.80
2019-03-15T12:23:30.848Z,0.90
2019-03-15T12:25:57.471Z,1.17
2019-03-15T12:28:23.938Z,1.10
2019-03-15T12:30:50.565Z,0.90
2019-03-15T12:33:17.400Z,0.80
2019-03-15T12:35:43.720Z,0.90
2019-03-15T12:38:10.467Z,0.70
2019-03-15T12:40:37.095Z,1.00
2019-03-15T12:43:03.445Z,1.00
2019-03-15T12:45:30.647Z,0.70
2019-03-15T12:47:56.996Z,0.90
2019-03-15T12:50:23.333Z,0.80
2019-03-15T12:52:50.117Z,0.80
2019-03-15T12:55:18.033Z,0.70
2019-03-15T12:57:44.337Z,0.70
2019-03-15T13:00:19.847Z,0.77
2019-03-15T13:02:47.717Z,0.67
2019-03-15T13:05:15.454Z,0.80
2019-03-15T13:07:42.119Z,0.70
2019-03-15T13:10:16.333Z,0.60
2019-03-15T13:12:42.703Z,0.60
2019-03-15T13:15:14.922Z,0.63
2019-03-15T13:17:41.566Z,0.93
2019-03-15T13:20:14.187Z,0.63
2019-03-15T13:22:40.516Z,0.63
2019-03-15T13:25:09.249Z,0.63
2019-03-15T13:27:38.166Z,0.60
2019-03-15T13:30:13.428Z,0.73
2019-03-15T13:32:40.034Z,0.60
2019-03-15T13:35:09.227Z,0.77
2019-03-15T13:37:35.583Z,0.60
2019-03-15T13:40:17.341Z,0.60
2019-03-15T13:42:43.784Z,0.70
2019-03-15T13:45:14.334Z,0.60
2019-03-15T13:47:40.702Z,0.97
2019-03-15T13:50:15.379Z,0.80
2019-03-15T13:52:41.725Z,0.70
2019-03-15T13:55:08.963Z,1.47
2019-03-15T13:57:35.290Z,0.60
2019-03-15T14:00:02.851Z,0.57
2019-03-15T14:02:29.644Z,0.50
2019-03-15T14:04:55.992Z,0.60
2019-03-15T14:07:22.398Z,0.60
2019-03-15T14:09:49.215Z,0.60
2019-03-15T14:12:16.725Z,0.67
2019-03-15T14:14:43.439Z,0.80
2019-03-15T14:17:09.754Z,0.50
2019-03-15T14:19:36.479Z,0.50
2019-03-15T14:22:06.167Z,0.40
2019-03-15T14:24:32.202Z,0.50
2019-03-15T14:26:58.543Z,0.60
2019-03-15T14:29:24.937Z,0.60
2019-03-15T14:31:51.346Z,0.50
2019-03-15T14:34:17.667Z,0.50
2019-03-15T14:36:44.378Z,0.40
2019-03-15T14:39:10.805Z,0.57
2019-03-15T14:41:37.383Z,0.50
2019-03-15T14:44:03.977Z,0.50
2019-03-15T14:46:31.383Z,0.50
2019-03-15T14:48:57.980Z,0.60
2019-03-15T14:51:24.337Z,0.50
2019-03-15T14:53:50.671Z,0.73
2019-03-15T14:56:17.380Z,0.87
2019-03-15T14:58:43.718Z,0.50
2019-03-15T15:01:10.040Z,0.50
2019-03-15T15:03:36.686Z,0.50
2019-03-15T15:06:03.095Z,0.50
2019-03-15T15:08:30.517Z,0.60
2019-03-15T15:10:57.579Z,0.50
2019-03-15T15:13:24.395Z,0.60
2019-03-15T15:15:51.014Z,0.63
2019-03-15T15:18:17.643Z,0.70
2019-03-15T15:20:44.301Z,1.00
2019-03-15T15:23:11.665Z,0.90
2019-03-15T15:25:38.394Z,0.90
2019-03-15T15:28:05.202Z,1.40
2019-03-15T15:30:31.818Z,0.90
2019-03-15T15:32:58.217Z,0.80
2019-03-15T15:35:24.824Z,0.60
2019-03-15T15:37:51.578Z,0.60
2019-03-15T15:40:20.267Z,0.60
2019-03-15T15:42:46.727Z,0.40
2019-03-15T15:45:13.481Z,0.63
2019-03-15T15:47:40.183Z,0.60
2019-03-15T15:50:12.360Z,0.60
2019-03-15T15:52:38.741Z,0.40
2019-03-15T15:55:11.663Z,0.50
2019-03-15T15:57:38.026Z,0.50
2019-03-15T16:00:16.002Z,0.60
2019-03-15T16:02:42.538Z,0.50
2019-03-15T16:05:09.221Z,0.60
2019-03-15T16:07:35.714Z,0.67
2019-03-15T16:10:08.456Z,0.47
2019-03-15T16:12:35.166Z,0.50
2019-03-15T16:15:01.846Z,0.50
2019-03-15T16:17:28.814Z,0.70
2019-03-15T16:19:55.479Z,0.60
2019-03-15T16:22:22.219Z,0.50
2019-03-15T16:24:48.847Z,0.50
2019-03-15T16:27:15.190Z,0.50
2019-03-15T16:29:41.811Z,0.60
2019-03-15T16:32:08.221Z,0.60
2019-03-15T16:34:35.364Z,0.40
2019-03-15T16:37:03.016Z,0.50
2019-03-15T16:39:29.523Z,0.60
2019-03-15T16:41:56.221Z,0.60
2019-03-15T16:44:22.597Z,0.63
2019-03-15T16:46:49.302Z,0.50
2019-03-15T16:49:15.942Z,0.50
2019-03-15T16:51:42.586Z,0.40
2019-03-15T16:54:09.001Z,0.60
2019-03-15T16:56:36.777Z,0.60
2019-03-15T16:59:03.628Z,0.50
2019-03-15T17:01:30.949Z,0.50
2019-03-15T17:03:57.270Z,0.63
2019-03-15T17:06:23.972Z,0.73
2019-03-15T17:08:50.580Z,0.60
2019-03-15T17:11:17.236Z,0.50
2019-03-15T17:13:43.856Z,0.63
2019-03-15T17:16:10.416Z,0.50
2019-03-15T17:18:36.972Z,0.60
2019-03-15T17:21:03.316Z,0.50
2019-03-15T17:23:29.719Z,0.50
2019-03-15T17:25:56.455Z,0.40
2019-03-15T17:28:23.201Z,0.60
2019-03-15T17:30:49.932Z,0.50
2019-03-15T17:33:16.320Z,0.40
2019-03-15T17:35:43.419Z,0.40
2019-03-15T17:38:09.833Z,0.40
2019-03-15T17:40:36.151Z,0.60
2019-03-15T17:43:13.187Z,0.50
2019-03-15T17:45:36.829Z,0.50
2019-03-15T17:48:03.564Z,0.50
2019-03-15T17:50:29.872Z,0.57
2019-03-15T18:07:14.976Z,0.60
2019-03-15T18:09:44.177Z,0.60
2019-03-15T18:12:12.841Z,0.60
2019-03-15T18:14:40.432Z,0.70
2019-03-15T18:17:07.697Z,1.10
2019-03-15T18:19:34.569Z,0.77
2019-03-15T19:25:48.198Z,2.20
2019-03-15T19:28:14.623Z,2.50
2019-03-15T19:30:41.344Z,2.70
2019-03-15T19:33:08.073Z,2.27
2019-03-15T19:35:34.451Z,2.53
2019-03-15T19:38:01.285Z,2.80
2019-03-15T19:40:27.993Z,2.60
2019-03-15T19:42:54.368Z,3.10
2019-03-15T19:45:20.793Z,2.30
2019-03-15T19:47:47.465Z,2.00
2019-03-15T19:50:20.827Z,1.97
2019-03-15T19:52:47.471Z,2.40
2019-03-15T19:55:14.861Z,2.60
2019-03-15T19:57:41.550Z,3.50
2019-03-15T20:00:16.961Z,2.10
2019-03-15T20:02:43.695Z,1.70
2019-03-15T20:05:10.902Z,1.23
2019-03-15T20:07:37.388Z,2.17
2019-03-15T20:10:16.902Z,2.30
2019-03-15T20:12:43.626Z,1.93
2019-03-15T20:15:12.751Z,1.90
2019-03-15T20:17:39.159Z,1.60
2019-03-15T20:20:09.783Z,1.27
2019-03-15T20:22:36.458Z,1.07
2019-03-15T20:25:14.931Z,1.10
2019-03-15T20:27:42.200Z,0.70
2019-03-15T20:30:26.778Z,2.80
2019-03-15T20:32:53.313Z,0.77
2019-03-15T20:35:19.669Z,1.10
2019-03-15T20:37:46.510Z,0.80
2019-03-15T20:40:13.225Z,1.10
2019-03-15T20:42:40.838Z,1.07
2019-03-15T20:45:14.979Z,1.00
2019-03-15T20:47:41.434Z,1.17
2019-03-15T20:50:11.489Z,1.30
2019-03-15T20:52:38.008Z,0.97
2019-03-15T20:55:06.069Z,1.17
2019-03-15T20:57:32.816Z,1.20
2019-03-15T20:59:59.238Z,1.37
2019-03-15T21:02:25.692Z,1.20
2019-03-15T21:04:52.110Z,1.20
2019-03-15T21:07:19.184Z,0.80
2019-03-15T21:09:46.106Z,1.00
2019-03-15T21:12:12.744Z,0.90
2019-03-15T21:14:39.643Z,1.00
2019-03-15T21:17:06.439Z,1.10
2019-03-15T21:19:32.896Z,1.07
2019-03-15T21:21:59.246Z,1.37
2019-03-15T21:24:25.584Z,1.10
2019-03-15T21:26:52.026Z,1.57
2019-03-15T21:29:18.703Z,1.40
2019-03-15T21:31:45.447Z,1.10
2019-03-15T21:34:12.078Z,1.23
2019-03-15T21:36:39.633Z,1.30
2019-03-15T21:39:07.299Z,0.80
2019-03-15T21:41:33.982Z,0.80
2019-03-15T21:44:01.019Z,0.83
2019-03-15T21:46:27.358Z,1.60
2019-03-15T21:48:53.808Z,1.10
2019-03-15T21:51:20.485Z,0.80
2019-03-15T21:53:49.633Z,1.07
2019-03-15T21:56:17.153Z,0.97
2019-03-15T21:58:43.822Z,0.70
2019-03-15T22:01:11.464Z,0.80
2019-03-15T22:03:38.107Z,1.23
2019-03-15T22:06:04.451Z,0.90
2019-03-15T22:08:32.248Z,0.80
2019-03-15T22:10:58.542Z,0.80
2019-03-15T22:13:24.975Z,1.77
2019-03-15T22:15:51.374Z,1.10
2019-03-15T22:18:17.743Z,1.03
2019-03-15T22:20:44.387Z,1.10
2019-03-15T22:23:10.711Z,0.90
2019-03-15T22:25:37.356Z,1.20
2019-03-15T22:28:03.740Z,0.80
2019-03-15T22:30:31.486Z,0.87
2019-03-15T22:32:57.897Z,1.20
2019-03-15T22:35:25.430Z,0.80
2019-03-15T22:37:52.053Z,0.90
2019-03-15T22:40:19.364Z,0.80
2019-03-15T22:42:46.965Z,1.10
2019-03-15T22:45:14.657Z,0.77
2019-03-15T22:47:41.273Z,1.10
2019-03-15T22:50:09.841Z,1.07
2019-03-15T22:52:36.516Z,0.83
2019-03-15T22:55:05.536Z,0.83
2019-03-15T22:57:32.950Z,0.70
2019-03-15T22:59:59.278Z,1.20
2019-03-15T23:02:26.026Z,1.00
2019-03-15T23:04:52.359Z,1.50
2019-03-15T23:07:18.730Z,0.67
2019-03-15T23:09:46.280Z,0.70
2019-03-15T23:12:12.605Z,0.90
2019-03-15T23:14:38.962Z,0.80
2019-03-15T23:17:05.295Z,1.13
2019-03-15T23:19:31.638Z,0.80
2019-03-15T23:21:58.071Z,0.70
2019-03-15T23:24:24.417Z,0.70
2019-03-15T23:26:51.180Z,1.03
2019-03-15T23:29:17.819Z,0.80
2019-03-15T23:31:44.243Z,1.00
2019-03-15T23:34:10.995Z,0.87
2019-03-15T23:36:37.365Z,0.70
2019-03-15T23:39:05.730Z,1.00
2019-03-15T23:41:32.454Z,1.17
2019-03-15T23:43:58.806Z,0.50
2019-03-15T23:46:25.524Z,0.67
2019-03-15T23:48:51.879Z,0.80
2019-03-15T23:51:18.189Z,0.80
2019-03-15T23:53:44.556Z,0.67
2019-03-15T23:56:10.867Z,0.80
2019-03-15T23:58:37.607Z,1.03
